Time;durP1;ratioP1;P1;durP2;ratioP2;P2;SDS_P1;SDS_P2;PMS_P1;PMS_P2;Temp;Humidity;BMP_temperature;BMP_pressure;BME280_temperature;BME280_humidity;BME280_pressure;Samples;Min_cycle;Max_cycle;Signal;HPM_P1;HPM_P2
2023/06/13 00:00:07;;;;;;;10.27;4.35;;;20.80;49.80;;;;;;5071271;28;20040;-86
2023/06/13 00:02:33;;;;;;;10.50;4.50;;;20.80;49.80;;;;;;5071654;28;20055;-86
2023/06/13 00:05:03;;;;;;;8.27;4.50;;;20.80;49.90;;;;;;5071807;28;20037;-86
2023/06/13 00:07:32;;;;;;;10.15;4.55;;;20.80;49.90;;;;;;5071784;28;20143;-86
2023/06/13 00:09:57;;;;;;;9.80;4.30;;;20.80;50.10;;;;;;5071267;28;20084;-86
2023/06/13 00:12:25;;;;;;;11.75;4.65;;;20.70;50.10;;;;;;5071321;28;20071;-86
2023/06/13 00:14:51;;;;;;;8.05;4.07;;;20.70;50.20;;;;;;5071248;28;20093;-86
2023/06/13 00:17:18;;;;;;;8.38;4.38;;;20.60;50.30;;;;;;5071290;28;20559;-86
2023/06/13 00:19:48;;;;;;;11.10;4.63;;;20.60;50.60;;;;;;5054383;28;20128;-86
2023/06/13 00:22:14;;;;;;;9.38;4.70;;;20.60;50.60;;;;;;5054830;28;20050;-86
2023/06/13 00:24:43;;;;;;;11.88;4.70;;;20.50;50.60;;;;;;5071464;28;20553;-86
2023/06/13 00:27:10;;;;;;;9.15;5.20;;;20.50;50.80;;;;;;5053645;28;20036;-86
2023/06/13 00:29:35;;;;;;;10.43;5.47;;;20.50;50.70;;;;;;5070759;28;20054;-86
2023/06/13 00:32:01;;;;;;;10.77;4.97;;;20.40;50.80;;;;;;5054440;28;20455;-86
2023/06/13 00:34:27;;;;;;;12.18;5.85;;;20.40;50.90;;;;;;5072351;28;20032;-86
2023/06/13 00:36:55;;;;;;;10.35;5.30;;;20.40;50.90;;;;;;5054519;28;20525;-86
2023/06/13 00:39:21;;;;;;;12.88;5.78;;;20.30;51.00;;;;;;5070925;28;20493;-86
2023/06/13 00:41:47;;;;;;;12.57;6.05;;;20.30;50.90;;;;;;5053940;28;20083;-86
2023/06/13 00:44:13;;;;;;;9.35;5.53;;;20.30;51.00;;;;;;5070811;28;20064;-86
2023/06/13 00:46:39;;;;;;;11.07;6.13;;;20.30;50.80;;;;;;5071135;28;20063;-86
2023/06/13 00:49:06;;;;;;;10.02;5.90;;;20.20;50.80;;;;;;5070742;28;20047;-86
2023/06/13 00:51:35;;;;;;;13.20;6.18;;;20.20;50.80;;;;;;5053768;28;20048;-86
2023/06/13 00:54:02;;;;;;;11.88;5.90;;;20.20;50.90;;;;;;5054088;28;20036;-86
2023/06/13 00:56:29;;;;;;;12.35;5.95;;;20.10;50.90;;;;;;5053780;28;20052;-86
2023/06/13 00:59:07;;;;;;;11.32;6.32;;;20.10;50.90;;;;;;5053969;28;20040;-86
2023/06/13 01:01:34;;;;;;;11.38;6.28;;;20.10;51.00;;;;;;5070309;28;20041;-86
2023/06/13 01:04:02;;;;;;;10.00;6.15;;;20.10;51.20;;;;;;5054019;28;20033;-85
2023/06/13 01:06:30;;;;;;;11.35;6.10;;;20.10;51.30;;;;;;5053793;28;20101;-86
2023/06/13 01:08:58;;;;;;;14.38;6.47;;;20.00;51.30;;;;;;5070571;28;20052;-86
2023/06/13 01:11:49;;;;;;;11.00;6.18;;;20.00;51.40;;;;;;5070166;28;20055;-86
2023/06/13 01:14:34;;;;;;;9.18;5.90;;;20.00;51.30;;;;;;5070535;28;20093;-86
2023/06/13 01:17:20;;;;;;;10.23;6.00;;;19.90;51.60;;;;;;5070481;28;20044;-86
2023/06/13 01:19:57;;;;;;;9.52;6.18;;;19.90;51.60;;;;;;5053422;28;20048;-86
2023/06/13 01:22:29;;;;;;;10.10;6.20;;;19.90;51.80;;;;;;5070682;28;20036;-85
2023/06/13 01:25:08;;;;;;;10.00;6.25;;;19.80;51.90;;;;;;5070471;28;20044;-86
2023/06/13 01:27:35;;;;;;;9.68;6.10;;;19.80;51.90;;;;;;5070298;28;20529;-86
2023/06/13 01:30:03;;;;;;;11.32;6.63;;;19.80;52.20;;;;;;5069957;28;20045;-85
2023/06/13 01:32:29;;;;;;;11.73;6.53;;;19.70;52.20;;;;;;5070342;28;20051;-86
2023/06/13 01:34:55;;;;;;;11.90;6.10;;;19.70;52.30;;;;;;5053847;28;20098;-86
2023/06/13 01:37:21;;;;;;;10.77;6.30;;;19.70;52.40;;;;;;5071905;28;20513;-86
2023/06/13 01:39:47;;;;;;;10.77;6.05;;;19.70;52.50;;;;;;5073902;28;20048;-86
2023/06/13 01:42:13;;;;;;;12.85;6.45;;;19.60;52.60;;;;;;5075564;28;20028;-86
2023/06/13 01:44:39;;;;;;;12.13;6.43;;;19.60;52.80;;;;;;5074415;28;20131;-86
2023/06/13 01:47:07;;;;;;;10.25;6.55;;;19.50;52.90;;;;;;5074317;28;20043;-85
2023/06/13 01:49:43;;;;;;;11.05;6.05;;;19.50;53.00;;;;;;5073795;28;20512;-85
2023/06/13 01:52:34;;;;;;;10.52;6.30;;;19.50;53.20;;;;;;5057612;28;20445;-86
2023/06/13 01:55:03;;;;;;;11.13;6.20;;;19.40;53.20;;;;;;5074056;28;20041;-85
2023/06/13 01:57:36;;;;;;;9.85;6.30;;;19.40;53.50;;;;;;5073514;28;20041;-86
2023/06/13 02:00:03;;;;;;;11.48;6.00;;;19.40;53.50;;;;;;5073679;28;20181;-85
2023/06/13 02:02:29;;;;;;;12.20;5.93;;;19.30;53.50;;;;;;5074277;28;20056;-86
2023/06/13 02:04:56;;;;;;;9.85;5.80;;;19.30;53.60;;;;;;5073841;28;20047;-86
2023/06/13 02:07:22;;;;;;;11.05;6.32;;;19.30;53.80;;;;;;5057046;28;20032;-86
2023/06/13 02:09:48;;;;;;;13.70;6.43;;;19.20;54.00;;;;;;5073574;28;20047;-86
2023/06/13 02:12:14;;;;;;;10.10;6.00;;;19.20;54.20;;;;;;5073365;28;20036;-86
2023/06/13 02:14:40;;;;;;;10.55;5.95;;;19.20;54.40;;;;;;5073757;28;20044;-85
2023/06/13 02:17:06;;;;;;;10.25;5.88;;;19.20;55.10;;;;;;5056939;28;20051;-86
2023/06/13 02:19:32;;;;;;;11.60;6.30;;;19.10;54.50;;;;;;5056519;28;20567;-86
2023/06/13 02:21:57;;;;;;;11.27;5.70;;;19.10;54.60;;;;;;5074779;28;20044;-85
2023/06/13 02:24:23;;;;;;;10.13;5.72;;;19.10;54.90;;;;;;5073814;28;20060;-86
2023/06/13 02:26:49;;;;;;;11.38;6.10;;;19.00;54.80;;;;;;5056917;28;20040;-85
2023/06/13 02:29:15;;;;;;;10.25;5.68;;;19.00;55.10;;;;;;5073430;28;20080;-86
2023/06/13 02:31:41;;;;;;;11.13;6.32;;;19.00;55.20;;;;;;5073060;28;20083;-86
2023/06/13 02:34:07;;;;;;;11.05;5.63;;;18.90;55.20;;;;;;5073332;28;20040;-86
2023/06/13 02:36:33;;;;;;;10.45;5.80;;;18.90;55.30;;;;;;5056913;28;20048;-86
2023/06/13 02:39:01;;;;;;;9.50;5.63;;;18.90;55.40;;;;;;5056532;28;20520;-86
2023/06/13 02:41:26;;;;;;;12.00;5.70;;;18.80;55.60;;;;;;5072785;28;20571;-85
2023/06/13 02:43:52;;;;;;;8.60;5.68;;;18.80;55.80;;;;;;5073140;28;20037;-85
2023/06/13 02:46:17;;;;;;;10.88;5.70;;;18.80;56.00;;;;;;5056518;28;20044;-85
2023/06/13 02:48:43;;;;;;;9.70;6.15;;;18.70;56.00;;;;;;5072077;28;20477;-85
2023/06/13 02:51:09;;;;;;;11.63;5.05;;;18.70;56.00;;;;;;5072704;28;20056;-86
2023/06/13 02:53:35;;;;;;;10.35;5.20;;;18.70;56.30;;;;;;5072916;28;20047;-86
2023/06/13 02:56:01;;;;;;;10.20;5.45;;;18.60;56.40;;;;;;5072884;28;20449;-86
2023/06/13 02:58:26;;;;;;;12.55;5.85;;;18.60;56.60;;;;;;5072714;28;20032;-86
2023/06/13 03:00:52;;;;;;;9.35;5.40;;;18.60;56.70;;;;;;5072532;28;20033;-86
2023/06/13 03:03:18;;;;;;;10.40;5.32;;;18.60;56.80;;;;;;5072576;28;20067;-86
2023/06/13 03:05:47;;;;;;;9.05;5.20;;;18.60;56.80;;;;;;5056011;28;20040;-85
2023/06/13 03:08:18;;;;;;;11.55;5.43;;;18.50;56.80;;;;;;5072790;28;20139;-86
2023/06/13 03:10:48;;;;;;;10.65;5.05;;;18.50;57.00;;;;;;5072318;28;20040;-85
2023/06/13 03:13:15;;;;;;;11.32;5.60;;;18.50;57.00;;;;;;5055945;28;20161;-85
2023/06/13 03:15:43;;;;;;;9.82;5.00;;;18.40;57.30;;;;;;5072886;28;20048;-86
2023/06/13 03:18:09;;;;;;;13.38;4.60;;;18.40;57.20;;;;;;5072567;28;20044;-86
2023/06/13 03:20:37;;;;;;;11.73;5.25;;;18.30;57.10;;;;;;5071956;28;20071;-86
2023/06/13 03:23:03;;;;;;;11.10;5.38;;;18.30;57.50;;;;;;5072485;28;20079;-86
2023/06/13 03:25:29;;;;;;;9.98;5.20;;;18.30;57.70;;;;;;5072374;28;20037;-86
2023/06/13 03:27:55;;;;;;;8.88;4.55;;;18.30;57.70;;;;;;5072342;28;20036;-86
2023/06/13 03:30:21;;;;;;;10.57;5.05;;;18.30;57.80;;;;;;5072279;28;20045;-86
2023/06/13 03:32:46;;;;;;;11.18;5.40;;;18.30;58.00;;;;;;5072174;28;20406;-86
2023/06/13 03:35:12;;;;;;;9.70;5.10;;;18.30;58.10;;;;;;5055580;28;20056;-87
2023/06/13 03:37:38;;;;;;;10.70;5.13;;;18.30;58.10;;;;;;5072147;28;20036;-86
2023/06/13 03:40:04;;;;;;;9.88;5.32;;;18.20;58.20;;;;;;5071617;28;20045;-86
2023/06/13 03:42:30;;;;;;;11.93;5.10;;;18.20;58.20;;;;;;5072259;28;20040;-86
2023/06/13 03:44:55;;;;;;;9.90;4.95;;;18.20;58.20;;;;;;5073314;28;20540;-86
2023/06/13 03:47:21;;;;;;;11.10;4.70;;;18.20;58.40;;;;;;5073347;28;20068;-86
2023/06/13 03:49:46;;;;;;;9.18;5.10;;;18.20;58.30;;;;;;5071520;28;20052;-86
2023/06/13 03:52:12;;;;;;;11.68;4.82;;;18.20;58.40;;;;;;5072105;28;20037;-86
2023/06/13 03:54:38;;;;;;;10.18;4.95;;;18.20;58.50;;;;;;5055093;28;20044;-86
2023/06/13 03:57:04;;;;;;;9.88;5.15;;;18.20;58.70;;;;;;5071838;28;20047;-86
2023/06/13 03:59:30;;;;;;;10.30;4.78;;;18.20;58.70;;;;;;5071064;28;20047;-86
2023/06/13 04:01:55;;;;;;;9.93;5.15;;;18.20;58.70;;;;;;5071629;28;20040;-86
2023/06/13 04:04:21;;;;;;;9.95;4.80;;;18.20;58.80;;;;;;5071598;28;20091;-86
2023/06/13 04:06:49;;;;;;;12.60;4.90;;;18.20;59.00;;;;;;5071903;28;20401;-86
2023/06/13 04:09:14;;;;;;;10.18;4.70;;;18.20;59.10;;;;;;5071783;28;20052;-86
2023/06/13 04:11:40;;;;;;;11.73;5.20;;;18.20;59.10;;;;;;5054711;28;20036;-86
2023/06/13 04:14:05;;;;;;;9.60;4.97;;;18.20;59.10;;;;;;5054836;28;20582;-86
2023/06/13 04:16:31;;;;;;;9.55;4.70;;;18.20;59.20;;;;;;5071302;28;20418;-86
2023/06/13 04:18:57;;;;;;;8.75;4.70;;;18.20;59.20;;;;;;5071265;28;20055;-86
2023/06/13 04:21:25;;;;;;;10.95;4.75;;;18.20;59.20;;;;;;5054367;28;20409;-86
2023/06/13 04:23:52;;;;;;;8.95;4.30;;;18.20;59.20;;;;;;5071268;28;20067;-86
2023/06/13 04:26:18;;;;;;;10.77;4.78;;;18.20;59.20;;;;;;5071201;28;20098;-86
2023/06/13 04:28:45;;;;;;;9.50;4.78;;;18.20;59.30;;;;;;5071336;28;20409;-86
2023/06/13 04:31:12;;;;;;;9.30;4.50;;;18.20;59.50;;;;;;5070759;28;20509;-86
2023/06/13 04:33:45;;;;;;;12.48;4.82;;;18.30;59.50;;;;;;5071064;28;20536;-86
2023/06/13 04:36:12;;;;;;;8.45;4.72;;;18.30;59.50;;;;;;5054516;28;20044;-86
2023/06/13 04:38:39;;;;;;;9.90;4.88;;;18.30;59.60;;;;;;5054222;28;20044;-86
2023/06/13 04:41:13;;;;;;;9.88;4.82;;;18.30;59.70;;;;;;5071886;28;20087;-86
2023/06/13 04:43:41;;;;;;;9.98;4.18;;;18.30;59.70;;;;;;5070843;28;20082;-86
2023/06/13 04:46:07;;;;;;;8.60;4.53;;;18.30;59.60;;;;;;5070903;28;20033;-86
2023/06/13 04:48:35;;;;;;;10.18;4.90;;;18.30;59.70;;;;;;5071022;28;20028;-86
2023/06/13 04:51:04;;;;;;;9.02;4.18;;;18.30;59.70;;;;;;5070459;28;20036;-85
2023/06/13 04:53:30;;;;;;;10.40;4.75;;;18.30;59.60;;;;;;5070555;28;20045;-85
2023/06/13 04:55:57;;;;;;;9.88;4.30;;;18.40;59.80;;;;;;5054060;28;20056;-86
2023/06/13 04:58:23;;;;;;;10.88;4.50;;;18.40;59.70;;;;;;5070622;28;20114;-86
2023/06/13 05:00:50;;;;;;;8.82;4.53;;;18.40;59.50;;;;;;5070335;28;20047;-86
2023/06/13 05:03:16;;;;;;;9.20;4.45;;;18.50;59.70;;;;;;5053978;28;20549;-86
2023/06/13 05:05:43;;;;;;;8.73;4.32;;;18.50;59.60;;;;;;5070845;28;20429;-86
2023/06/13 05:08:10;;;;;;;10.30;4.80;;;18.50;59.60;;;;;;5070537;28;20044;-86
2023/06/13 05:10:35;;;;;;;9.25;4.40;;;18.50;59.40;;;;;;5070098;28;20044;-86
2023/06/13 05:13:01;;;;;;;11.15;4.30;;;18.60;59.30;;;;;;5069959;28;20048;-86
2023/06/13 05:15:27;;;;;;;9.20;4.18;;;18.60;59.30;;;;;;5070453;28;20036;-86
2023/06/13 05:17:54;;;;;;;9.55;3.83;;;18.60;59.10;;;;;;5070450;28;20123;-86
2023/06/13 05:20:22;;;;;;;9.70;4.30;;;18.60;59.00;;;;;;5070075;28;20087;-86
2023/06/13 05:22:52;;;;;;;9.30;4.30;;;18.60;58.90;;;;;;5070316;28;20032;-86
2023/06/13 05:25:18;;;;;;;9.30;3.85;;;18.70;58.90;;;;;;5087287;28;20041;-86
2023/06/13 05:27:43;;;;;;;10.00;4.45;;;18.70;58.70;;;;;;5070439;28;20073;-86
2023/06/13 05:30:09;;;;;;;8.75;4.38;;;18.80;58.80;;;;;;5053396;28;20102;-87
2023/06/13 05:32:35;;;;;;;10.95;4.20;;;18.80;58.80;;;;;;5053602;28;20048;-86
2023/06/13 05:35:01;;;;;;;9.13;4.15;;;18.80;58.70;;;;;;5070297;28;20041;-87
2023/06/13 05:37:28;;;;;;;8.95;4.00;;;18.90;58.50;;;;;;5070231;28;20040;-87
2023/06/13 05:39:54;;;;;;;9.73;4.35;;;18.90;58.40;;;;;;5053114;28;20055;-87
2023/06/13 05:42:20;;;;;;;10.02;3.95;;;18.90;58.30;;;;;;5070300;28;20047;-87
2023/06/13 05:44:46;;;;;;;10.13;4.10;;;19.00;58.30;;;;;;5070377;28;20037;-86
2023/06/13 05:47:11;;;;;;;11.10;3.85;;;19.10;58.30;;;;;;5053591;28;20073;-86
2023/06/13 05:49:37;;;;;;;9.70;4.13;;;19.10;58.20;;;;;;5070109;28;20079;-87
2023/06/13 05:52:03;;;;;;;8.43;4.25;;;19.20;58.00;;;;;;5070093;28;20493;-87
2023/06/13 05:54:28;;;;;;;7.70;3.85;;;19.20;58.00;;;;;;5070333;28;20127;-86
2023/06/13 05:56:54;;;;;;;12.23;4.35;;;19.20;57.90;;;;;;5070181;28;20061;-87
2023/06/13 05:59:20;;;;;;;8.57;3.63;;;19.20;58.60;;;;;;5070082;28;20044;-87
2023/06/13 06:01:46;;;;;;;8.73;4.22;;;19.30;58.10;;;;;;5069660;28;20071;-87
2023/06/13 06:04:12;;;;;;;8.90;4.00;;;19.40;58.00;;;;;;5070328;28;20123;-87
2023/06/13 06:06:37;;;;;;;11.50;4.30;;;19.40;58.00;;;;;;5070312;28;20126;-87
2023/06/13 06:09:04;;;;;;;8.15;3.97;;;19.50;57.90;;;;;;5053422;28;20520;-87
2023/06/13 06:11:33;;;;;;;11.55;4.75;;;19.50;57.90;;;;;;5069624;28;20094;-87
2023/06/13 06:13:59;;;;;;;7.78;3.50;;;19.60;57.80;;;;;;5070169;28;20271;-87
2023/06/13 06:16:25;;;;;;;10.18;4.30;;;19.60;57.90;;;;;;5070141;28;20575;-88
2023/06/13 06:18:51;;;;;;;8.07;3.75;;;19.70;57.70;;;;;;5069260;28;20063;-88
2023/06/13 06:21:16;;;;;;;6.72;3.50;;;19.70;57.70;;;;;;5053031;28;20405;-87
2023/06/13 06:23:42;;;;;;;8.38;4.05;;;19.80;57.50;;;;;;5070170;28;20033;-87
2023/06/13 06:26:11;;;;;;;10.70;4.60;;;19.80;57.40;;;;;;5073178;28;20039;-87
2023/06/13 06:28:39;;;;;;;10.40;4.18;;;19.90;57.80;;;;;;5073413;28;20055;-87
2023/06/13 06:31:09;;;;;;;8.63;3.63;;;20.00;57.90;;;;;;5073120;28;20041;-87
2023/06/13 06:33:35;;;;;;;8.48;3.85;;;20.00;57.60;;;;;;5073485;28;20041;-88
2023/06/13 06:36:01;;;;;;;10.27;4.38;;;20.10;57.50;;;;;;5052914;28;20079;-87
2023/06/13 06:38:26;;;;;;;8.38;3.75;;;20.20;57.60;;;;;;5053311;28;20075;-87
2023/06/13 06:40:52;;;;;;;9.95;4.13;;;20.30;58.00;;;;;;5053025;28;20079;-87
2023/06/13 06:43:17;;;;;;;10.75;3.90;;;20.30;57.80;;;;;;5036875;28;20037;-87
2023/06/13 06:45:43;;;;;;;7.75;3.92;;;20.40;57.50;;;;;;5053119;28;20513;-87
2023/06/13 06:48:08;;;;;;;10.40;4.35;;;20.40;57.20;;;;;;5053319;28;20033;-87
2023/06/13 06:50:34;;;;;;;9.07;3.85;;;20.50;57.10;;;;;;5037292;28;20573;-87
2023/06/13 06:53:00;;;;;;;12.93;4.50;;;20.60;57.40;;;;;;5051841;28;20044;-87
2023/06/13 06:55:25;;;;;;;8.98;3.92;;;20.70;57.20;;;;;;5051882;28;20049;-87
2023/06/13 06:57:53;;;;;;;12.27;4.13;;;20.70;56.80;;;;;;5051798;28;20037;-87
2023/06/13 07:00:22;;;;;;;9.57;4.10;;;20.70;57.10;;;;;;5051457;28;20041;-88
2023/06/13 07:02:48;;;;;;;10.40;3.85;;;20.80;56.80;;;;;;5051502;28;20079;-88
2023/06/13 07:05:17;;;;;;;9.88;3.75;;;20.90;56.80;;;;;;5051667;28;20494;-88
2023/06/13 07:07:44;;;;;;;9.02;3.78;;;20.90;56.50;;;;;;5051887;28;20041;-88
2023/06/13 07:10:10;;;;;;;8.90;3.90;;;21.00;56.60;;;;;;5050977;28;20124;-88
2023/06/13 07:12:36;;;;;;;10.27;4.20;;;21.00;56.30;;;;;;5051803;28;20624;-88
2023/06/13 07:15:02;;;;;;;9.50;4.25;;;21.10;55.90;;;;;;5035288;28;20041;-87
2023/06/13 07:17:30;;;;;;;8.15;3.70;;;21.10;56.20;;;;;;5051718;28;20036;-87
2023/06/13 07:19:55;;;;;;;9.32;3.97;;;21.20;55.90;;;;;;5051504;28;20123;-88
2023/06/13 07:22:21;;;;;;;11.27;4.10;;;21.30;56.00;;;;;;5052164;28;20072;-87
2023/06/13 07:24:46;;;;;;;8.88;4.00;;;21.30;55.90;;;;;;5052126;28;20032;-87
2023/06/13 07:27:12;;;;;;;8.40;3.95;;;21.40;55.30;;;;;;5052258;28;20079;-87
2023/06/13 07:29:38;;;;;;;9.52;4.00;;;21.40;55.50;;;;;;5051714;28;20486;-88
2023/06/13 07:32:04;;;;;;;9.35;4.03;;;21.50;55.60;;;;;;5051838;28;20063;-88
2023/06/13 07:34:30;;;;;;;8.60;4.07;;;21.60;55.80;;;;;;5051291;28;20052;-87
2023/06/13 07:36:56;;;;;;;10.90;4.25;;;21.70;56.90;;;;;;5051824;28;20037;-87
2023/06/13 07:39:21;;;;;;;9.93;4.30;;;21.70;57.10;;;;;;5053971;28;20172;-88
2023/06/13 07:41:49;;;;;;;9.73;4.78;;;21.80;56.70;;;;;;5071695;28;20036;-88
2023/06/13 07:44:15;;;;;;;10.10;4.72;;;21.90;56.70;;;;;;5071009;28;20116;-88
2023/06/13 07:46:41;;;;;;;9.38;4.70;;;21.90;56.20;;;;;;5053382;28;20442;-88
2023/06/13 07:49:07;;;;;;;12.82;4.78;;;22.00;56.30;;;;;;5055107;28;20146;-88
2023/06/13 07:51:33;;;;;;;9.90;4.47;;;22.10;56.20;;;;;;5071656;28;20040;-88
2023/06/13 07:53:58;;;;;;;12.15;4.78;;;22.10;56.40;;;;;;5055359;28;20059;-88
2023/06/13 07:56:24;;;;;;;8.77;4.93;;;22.20;56.70;;;;;;5071598;28;20036;-88
2023/06/13 07:58:50;;;;;;;14.90;4.93;;;22.30;56.90;;;;;;5055056;28;20041;-89
2023/06/13 08:01:15;;;;;;;11.32;4.88;;;22.30;56.10;;;;;;5070684;28;20032;-88
2023/06/13 08:03:43;;;;;;;12.07;4.72;;;22.40;55.60;;;;;;5053006;28;20090;-88
2023/06/13 08:06:09;;;;;;;11.25;4.78;;;22.50;56.00;;;;;;5071725;28;20072;-88
2023/06/13 08:08:34;;;;;;;10.20;4.75;;;22.50;55.50;;;;;;5055090;28;20552;-88
2023/06/13 08:11:00;;;;;;;10.55;4.45;;;22.60;54.90;;;;;;5071167;28;20041;-88
2023/06/13 08:13:26;;;;;;;8.85;4.40;;;22.60;54.20;;;;;;5054833;28;20115;-88
2023/06/13 08:15:51;;;;;;;9.50;4.32;;;22.60;53.70;;;;;;5055045;28;20032;-88
2023/06/13 08:18:17;;;;;;;9.63;4.82;;;22.70;53.90;;;;;;5071340;28;20033;-88
2023/06/13 08:20:42;;;;;;;10.48;4.40;;;22.70;53.70;;;;;;5054260;28;20042;-88
2023/06/13 08:23:08;;;;;;;12.70;4.82;;;22.70;53.60;;;;;;5071385;28;20040;-88
2023/06/13 08:25:34;;;;;;;12.10;4.90;;;22.80;53.90;;;;;;5054543;28;20032;-88
2023/06/13 08:28:00;;;;;;;9.88;4.85;;;22.90;53.40;;;;;;5071333;28;20047;-88
2023/06/13 08:30:26;;;;;;;8.63;4.63;;;23.00;53.50;;;;;;5070900;28;20044;-88
2023/06/13 08:32:53;;;;;;;9.70;4.50;;;23.00;53.00;;;;;;5071400;28;20398;-88
2023/06/13 08:35:22;;;;;;;11.10;4.20;;;23.10;53.20;;;;;;5071075;28;20119;-88
2023/06/13 08:37:47;;;;;;;9.02;4.28;;;23.20;52.80;;;;;;5071226;28;20044;-88
2023/06/13 08:40:15;;;;;;;10.25;4.55;;;23.30;53.10;;;;;;5070588;28;20055;-88
2023/06/13 08:42:43;;;;;;;10.57;4.50;;;23.40;53.50;;;;;;5071001;28;20154;-88
2023/06/13 08:45:09;;;;;;;8.20;3.90;;;23.40;53.00;;;;;;5054656;28;20051;-88
2023/06/13 08:47:35;;;;;;;11.30;4.55;;;23.50;52.90;;;;;;5053851;28;20486;-88
2023/06/13 08:50:01;;;;;;;9.73;4.28;;;23.60;52.40;;;;;;5054129;28;20102;-88
2023/06/13 08:52:34;;;;;;;8.60;4.22;;;23.70;52.10;;;;;;5070710;28;20044;-88
2023/06/13 08:55:03;;;;;;;12.13;3.97;;;23.80;52.30;;;;;;5071206;28;20040;-88
2023/06/13 08:57:31;;;;;;;9.43;3.60;;;23.90;52.80;;;;;;5054496;28;20398;-88
2023/06/13 08:59:57;;;;;;;10.65;4.35;;;24.00;52.50;;;;;;5053594;28;20040;-88
2023/06/13 09:02:24;;;;;;;9.13;4.40;;;24.10;52.80;;;;;;5054419;28;20067;-88
2023/06/13 09:04:51;;;;;;;10.25;4.00;;;24.20;51.60;;;;;;5070893;28;20401;-88
2023/06/13 09:07:18;;;;;;;8.27;3.83;;;24.30;51.50;;;;;;5054168;28;20036;-88
2023/06/13 09:09:45;;;;;;;9.82;4.72;;;24.40;51.20;;;;;;5053602;28;20127;-88
2023/06/13 09:12:16;;;;;;;8.48;4.07;;;24.40;50.80;;;;;;5053734;28;20036;-88
2023/06/13 09:14:42;;;;;;;8.52;4.10;;;24.50;50.70;;;;;;5054322;28;20068;-88
2023/06/13 09:17:08;;;;;;;10.48;4.00;;;24.60;49.90;;;;;;5053707;28;20493;-88
2023/06/13 09:19:33;;;;;;;9.00;4.47;;;24.60;49.50;;;;;;5069986;28;20047;-88
2023/06/13 09:21:59;;;;;;;8.45;4.13;;;24.70;49.80;;;;;;5053679;28;20036;-88
2023/06/13 09:24:25;;;;;;;8.65;3.95;;;24.80;49.50;;;;;;5053762;28;20037;-88
2023/06/13 09:26:51;;;;;;;7.85;3.72;;;24.80;49.60;;;;;;5070927;28;20509;-88
2023/06/13 09:29:17;;;;;;;8.15;3.80;;;24.90;49.80;;;;;;5067585;28;20046;-88
2023/06/13 09:31:42;;;;;;;7.68;3.95;;;25.00;49.30;;;;;;5069450;28;20409;-88
2023/06/13 09:34:15;;;;;;;8.40;4.07;;;25.10;48.80;;;;;;5069770;28;20118;-88
2023/06/13 09:36:41;;;;;;;9.20;3.80;;;25.20;50.10;;;;;;5069965;28;20040;-88
2023/06/13 09:39:07;;;;;;;8.10;3.63;;;25.20;49.80;;;;;;5053146;28;20040;-88
2023/06/13 09:41:34;;;;;;;9.02;4.65;;;25.30;48.40;;;;;;5069625;28;20047;-88
2023/06/13 09:44:04;;;;;;;10.00;4.20;;;25.30;48.20;;;;;;5069841;28;20044;-88
2023/06/13 09:46:34;;;;;;;9.30;3.95;;;25.40;48.40;;;;;;5069967;28;20040;-88
2023/06/13 09:49:00;;;;;;;7.95;3.80;;;25.40;48.60;;;;;;5051903;28;20041;-87
2023/06/13 09:51:29;;;;;;;9.13;4.28;;;25.50;47.70;;;;;;5068994;28;20402;-88
2023/06/13 09:53:55;;;;;;;10.77;3.88;;;25.60;47.90;;;;;;5052686;28;20119;-88
2023/06/13 09:56:22;;;;;;;8.55;4.00;;;25.70;47.40;;;;;;5051759;28;20041;-88
2023/06/13 09:58:48;;;;;;;9.63;3.85;;;25.70;47.10;;;;;;5054865;28;20059;-88
2023/06/13 10:01:15;;;;;;;8.43;3.63;;;25.80;46.60;;;;;;5055467;28;20029;-88
2023/06/13 10:03:41;;;;;;;9.35;4.00;;;25.80;46.20;;;;;;5055273;28;20482;-88
2023/06/13 10:06:07;;;;;;;11.43;4.07;;;25.90;46.40;;;;;;5073023;28;20106;-88
2023/06/13 10:08:34;;;;;;;8.35;4.00;;;26.00;47.20;;;;;;5056550;28;20084;-87
2023/06/13 10:11:06;;;;;;;9.57;4.07;;;26.00;47.00;;;;;;5055640;28;20044;-88
2023/06/13 10:13:39;;;;;;;8.48;3.45;;;26.20;45.90;;;;;;5073784;28;20138;-88
2023/06/13 10:16:08;;;;;;;9.30;4.13;;;26.30;46.10;;;;;;5057079;28;20036;-87
2023/06/13 10:18:39;;;;;;;9.88;3.92;;;26.30;46.40;;;;;;5073217;28;20039;-88
2023/06/13 10:21:11;;;;;;;9.45;4.22;;;26.40;47.50;;;;;;5070466;28;20032;-88
2023/06/13 10:23:48;;;;;;;8.50;3.78;;;26.50;46.80;;;;;;5073651;28;20029;-88
2023/06/13 10:26:22;;;;;;;9.27;3.88;;;26.60;46.20;;;;;;5071969;28;20494;-88
2023/06/13 10:29:01;;;;;;;7.65;4.18;;;26.70;44.50;;;;;;5070302;28;20124;-88
2023/06/13 10:31:50;;;;;;;7.47;3.80;;;26.70;44.30;;;;;;5054159;28;20047;-88
2023/06/13 10:34:37;;;;;;;9.65;4.05;;;26.80;44.20;;;;;;5072834;28;20431;-88
2023/06/13 10:37:24;;;;;;;12.75;3.80;;;26.80;43.50;;;;;;5056417;28;20492;-87
2023/06/13 10:40:04;;;;;;;7.70;3.45;;;26.90;43.40;;;;;;5056524;28;20045;-88
2023/06/13 10:42:39;;;;;;;11.38;3.75;;;26.90;42.80;;;;;;5073302;28;20094;-87
2023/06/13 10:45:13;;;;;;;10.40;4.07;;;26.90;42.90;;;;;;5073497;28;20044;-87
2023/06/13 10:47:39;;;;;;;8.15;3.90;;;27.00;43.00;;;;;;5073255;28;20043;-88
2023/06/13 10:50:06;;;;;;;8.02;3.78;;;27.10;43.10;;;;;;5074018;28;20036;-88
2023/06/13 10:52:32;;;;;;;10.95;4.50;;;27.10;42.90;;;;;;5056449;28;20530;-88
2023/06/13 10:54:58;;;;;;;9.20;3.80;;;27.20;43.00;;;;;;5056315;28;20045;-88
2023/06/13 10:57:53;;;;;;;9.48;4.13;;;27.30;42.40;;;;;;5056298;28;20036;-88
2023/06/13 11:00:26;;;;;;;7.88;4.03;;;27.40;42.70;;;;;;5055419;28;20036;-88
2023/06/13 11:03:00;;;;;;;8.77;4.28;;;27.40;41.50;;;;;;5072627;28;20529;-88
2023/06/13 11:05:26;;;;;;;10.60;5.80;;;27.50;41.00;;;;;;5070692;28;20033;-88
2023/06/13 11:07:57;;;;;;;8.70;4.25;;;27.50;40.40;;;;;;5054739;28;20163;-88
2023/06/13 11:10:24;;;;;;;8.57;4.30;;;27.60;40.50;;;;;;5068744;28;20482;-88
2023/06/13 11:12:50;;;;;;;7.50;3.78;;;27.60;40.10;;;;;;5072363;28;20047;-88
2023/06/13 11:15:23;;;;;;;7.93;3.78;;;27.60;40.00;;;;;;5072154;28;20506;-88
2023/06/13 11:18:07;;;;;;;8.38;4.10;;;27.60;40.50;;;;;;5072177;28;20138;-88
2023/06/13 11:20:34;;;;;;;11.30;5.07;;;27.60;41.30;;;;;;5053872;28;20047;-88
2023/06/13 11:23:01;;;;;;;9.70;3.90;;;27.70;41.10;;;;;;5055538;28;20047;-88
2023/06/13 11:25:28;;;;;;;9.10;4.07;;;27.80;41.30;;;;;;5072412;28;20036;-88
2023/06/13 11:27:53;;;;;;;8.15;4.22;;;28.00;41.90;;;;;;5055536;28;20044;-88
2023/06/13 11:30:19;;;;;;;8.13;3.95;;;28.10;41.60;;;;;;5054767;28;20424;-88
2023/06/13 11:32:45;;;;;;;9.82;3.80;;;28.20;42.40;;;;;;5046765;28;20044;-88
2023/06/13 11:35:16;;;;;;;9.60;3.70;;;28.30;41.90;;;;;;5062479;28;20551;-88
2023/06/13 11:37:47;;;;;;;9.13;3.97;;;28.40;41.00;;;;;;5070666;28;20029;-88
2023/06/13 11:40:22;;;;;;;7.53;3.47;;;28.40;40.70;;;;;;5071538;28;20428;-88
2023/06/13 11:42:50;;;;;;;7.25;3.67;;;28.50;41.10;;;;;;5070153;28;20045;-88
2023/06/13 11:45:16;;;;;;;10.27;4.25;;;28.60;40.60;;;;;;5071642;28;20441;-88
2023/06/13 11:47:44;;;;;;;9.23;4.05;;;28.60;40.70;;;;;;5055192;28;20436;-88
2023/06/13 11:50:10;;;;;;;11.43;4.60;;;28.70;40.40;;;;;;5071190;28;20062;-88
2023/06/13 11:52:36;;;;;;;12.68;7.30;;;28.80;40.30;;;;;;5071749;28;20097;-88
2023/06/13 11:55:18;;;;;;;9.75;3.97;;;28.80;40.30;;;;;;5054905;28;20452;-88
2023/06/13 11:57:46;;;;;;;7.38;3.95;;;28.90;39.80;;;;;;5069454;28;20036;-88
2023/06/13 12:00:12;;;;;;;9.68;4.05;;;29.00;40.60;;;;;;5054591;28;20087;-89
2023/06/13 12:02:39;;;;;;;7.90;3.78;;;29.00;39.80;;;;;;5073267;28;20045;-88
2023/06/13 12:05:05;;;;;;;8.63;3.90;;;29.10;39.70;;;;;;5054951;28;20052;-88
2023/06/13 12:07:33;;;;;;;9.55;3.92;;;29.20;40.90;;;;;;5072049;28;20040;-88
2023/06/13 12:09:59;;;;;;;11.23;3.83;;;29.30;40.60;;;;;;5071156;28;20047;-88
2023/06/13 12:12:25;;;;;;;9.93;3.90;;;29.40;39.50;;;;;;5071594;28;20037;-88
2023/06/13 12:14:54;;;;;;;8.15;3.63;;;29.40;40.10;;;;;;5072958;28;20527;-88
2023/06/13 12:17:20;;;;;;;7.75;3.70;;;29.50;40.00;;;;;;5054876;28;20037;-88
2023/06/13 12:19:46;;;;;;;7.80;4.05;;;29.60;40.60;;;;;;5070994;28;20434;-88
2023/06/13 12:22:13;;;;;;;8.60;4.25;;;29.70;40.30;;;;;;5071536;28;20037;-88
2023/06/13 12:24:39;;;;;;;8.38;4.00;;;29.80;39.70;;;;;;5072228;28;20048;-88
2023/06/13 12:27:05;;;;;;;9.48;4.05;;;29.80;39.20;;;;;;5070261;28;20037;-88
2023/06/13 12:29:32;;;;;;;8.65;4.30;;;29.80;38.00;;;;;;5053921;28;20040;-89
2023/06/13 12:31:59;;;;;;;8.75;4.35;;;29.80;37.50;;;;;;5071432;28;20044;-89
2023/06/13 12:34:35;;;;;;;9.27;3.85;;;29.80;39.30;;;;;;5054342;28;20509;-88
2023/06/13 12:37:07;;;;;;;8.18;3.88;;;29.90;39.00;;;;;;5070885;28;20040;-88
2023/06/13 12:39:32;;;;;;;;;;;30.00;38.70;;;;;;5054548;28;20121;-88
2023/06/13 12:42:07;;;;;;;8.77;4.22;;;30.00;39.30;;;;;;5069874;28;19952;-88
2023/06/13 12:44:35;;;;;;;7.40;3.75;;;30.10;39.00;;;;;;5066940;28;20040;-87